Time;durP1;ratioP1;P1;durP2;ratioP2;P2;SDS_P1;SDS_P2;PMS_P1;PMS_P2;Temp;Humidity;BMP_temperature;BMP_pressure;BME280_temperature;BME280_humidity;BME280_pressure;Samples;Min_cycle;Max_cycle;Signal;HPM_P1;HPM_P2
2021/03/23 00:00:28;;;;;;;6.03;2.30;;;8.20;72.10;;;;;;4911829;29;20486;-64
2021/03/23 00:02:57;;;;;;;5.55;1.88;;;8.30;72.80;;;;;;4908650;29;20126;-63
2021/03/23 00:05:24;;;;;;;1.77;1.60;;;8.30;73.00;;;;;;4913033;29;20810;-64
2021/03/23 00:07:51;;;;;;;6.05;2.30;;;8.30;73.50;;;;;;4909363;29;20043;-64
2021/03/23 00:10:22;;;;;;;5.60;2.42;;;8.20;73.80;;;;;;4912381;29;20042;-64
2021/03/23 00:12:48;;;;;;;5.63;2.40;;;8.20;75.10;;;;;;4907699;29;20062;-64
2021/03/23 00:15:14;;;;;;;8.50;2.85;;;8.20;75.50;;;;;;4913090;29;20039;-64
2021/03/23 00:17:40;;;;;;;6.35;2.97;;;8.20;75.80;;;;;;4925674;29;20032;-63
2021/03/23 00:20:08;;;;;;;5.22;2.22;;;8.20;76.60;;;;;;4911977;29;20032;-60
2021/03/23 00:22:35;;;;;;;5.32;2.60;;;8.20;77.10;;;;;;4911862;29;20074;-65
2021/03/23 00:25:01;;;;;;;8.60;2.80;;;8.20;77.10;;;;;;4912328;29;20046;-64
2021/03/23 00:27:27;;;;;;;7.25;3.17;;;8.20;77.50;;;;;;4910856;29;20046;-64
2021/03/23 00:29:53;;;;;;;8.15;2.60;;;8.20;77.30;;;;;;4911021;29;20055;-60
2021/03/23 00:32:18;;;;;;;8.40;3.28;;;8.10;77.60;;;;;;4925238;29;20071;-60
2021/03/23 00:34:44;;;;;;;8.05;3.00;;;8.10;77.10;;;;;;4911480;29;20111;-60
2021/03/23 00:37:11;;;;;;;6.97;2.38;;;8.00;77.40;;;;;;4909396;29;20857;-60
2021/03/23 00:39:37;;;;;;;6.57;2.33;;;8.00;78.10;;;;;;4911277;29;20060;-60
2021/03/23 00:42:05;;;;;;;5.72;2.17;;;8.00;78.60;;;;;;4911404;29;20095;-60
2021/03/23 00:44:31;;;;;;;4.20;2.13;;;7.90;78.90;;;;;;4905587;29;20066;-60
2021/03/23 00:46:57;;;;;;;5.78;2.25;;;7.90;79.20;;;;;;4911112;29;20063;-61
2021/03/23 00:49:22;;;;;;;5.85;2.28;;;7.90;79.20;;;;;;4912953;29;20946;-60
2021/03/23 00:51:48;;;;;;;5.57;1.80;;;7.90;79.50;;;;;;4898895;29;20032;-60
2021/03/23 00:54:14;;;;;;;4.45;2.53;;;7.90;79.30;;;;;;4910077;29;20046;-60
2021/03/23 00:56:40;;;;;;;6.00;2.53;;;7.90;79.60;;;;;;4911017;29;20039;-60
2021/03/23 00:59:05;;;;;;;9.45;2.80;;;7.90;79.30;;;;;;4912254;29;20171;-60
2021/03/23 01:01:31;;;;;;;5.22;2.63;;;8.00;79.40;;;;;;4925437;29;20095;-63
2021/03/23 01:03:57;;;;;;;6.28;2.60;;;8.00;79.00;;;;;;4912594;29;20036;-63
2021/03/23 01:06:23;;;;;;;5.45;3.28;;;8.00;78.90;;;;;;4910982;29;20048;-64
2021/03/23 01:08:48;;;;;;;4.22;2.47;;;7.90;79.00;;;;;;4914545;29;20712;-64
2021/03/23 01:11:14;;;;;;;4.50;2.45;;;7.90;78.80;;;;;;4909420;29;20047;-64
2021/03/23 01:13:40;;;;;;;4.95;2.38;;;7.90;79.40;;;;;;4912068;29;20073;-63
2021/03/23 01:16:07;;;;;;;6.28;2.40;;;7.90;79.40;;;;;;4912858;29;20543;-60
2021/03/23 01:18:34;;;;;;;6.55;2.42;;;7.90;79.60;;;;;;4910917;29;20111;-63
2021/03/23 01:21:00;;;;;;;6.47;2.97;;;7.90;79.40;;;;;;4911065;29;20032;-64
2021/03/23 01:23:26;;;;;;;6.20;2.20;;;7.90;79.30;;;;;;4912334;29;20575;-64
2021/03/23 01:25:52;;;;;;;6.22;2.60;;;7.90;79.10;;;;;;4909532;29;20510;-64
2021/03/23 01:28:17;;;;;;;10.85;2.92;;;7.90;79.10;;;;;;4912018;29;20031;-64
2021/03/23 01:30:43;;;;;;;2.90;2.10;;;7.90;79.20;;;;;;4922158;29;20076;-64
2021/03/23 01:33:09;;;;;;;5.80;1.63;;;7.80;79.10;;;;;;4911481;29;20040;-63
2021/03/23 01:35:35;;;;;;;5.22;2.35;;;7.80;79.20;;;;;;4910821;29;20032;-63
2021/03/23 01:38:01;;;;;;;7.97;2.83;;;7.70;79.80;;;;;;4910876;29;20401;-63
2021/03/23 01:40:29;;;;;;;6.03;2.28;;;7.70;80.00;;;;;;4911892;29;20090;-59
2021/03/23 01:42:59;;;;;;;5.13;2.05;;;7.70;80.80;;;;;;4910440;29;20087;-60
2021/03/23 01:45:28;;;;;;;4.63;2.35;;;7.60;80.30;;;;;;4910284;29;20513;-60
2021/03/23 01:47:56;;;;;;;3.40;1.73;;;7.60;80.30;;;;;;4923633;29;20050;-60
2021/03/23 01:50:23;;;;;;;7.50;2.55;;;7.50;80.50;;;;;;4911194;29;20032;-60
2021/03/23 01:52:55;;;;;;;4.38;2.40;;;7.60;80.90;;;;;;4910283;29;20508;-60
2021/03/23 01:55:21;;;;;;;5.47;2.60;;;7.50;80.80;;;;;;4912649;29;20031;-60
2021/03/23 01:57:49;;;;;;;5.00;2.17;;;7.50;81.40;;;;;;4909983;29;20935;-60
2021/03/23 02:00:16;;;;;;;7.72;2.70;;;7.50;82.00;;;;;;4908334;29;20394;-64
2021/03/23 02:02:42;;;;;;;6.78;2.75;;;7.50;82.10;;;;;;4911129;29;20039;-65
2021/03/23 02:05:17;;;;;;;5.05;2.75;;;7.50;82.50;;;;;;4923531;28;20583;-63
2021/03/23 02:07:42;;;;;;;7.43;2.53;;;7.50;82.20;;;;;;4910156;29;20176;-64
2021/03/23 02:10:08;;;;;;;7.80;2.78;;;7.40;82.50;;;;;;4910080;29;20035;-60
2021/03/23 02:12:34;;;;;;;8.43;2.47;;;7.50;82.70;;;;;;4911555;29;20094;-60
2021/03/23 02:15:00;;;;;;;4.10;2.35;;;7.50;82.70;;;;;;4908307;29;20068;-60
2021/03/23 02:17:32;;;;;;;4.25;2.47;;;7.50;82.50;;;;;;4894353;29;20995;-60
2021/03/23 02:20:19;;;;;;;3.95;2.10;;;7.50;82.30;;;;;;4908546;29;20058;-60
2021/03/23 02:22:48;;;;;;;5.40;2.35;;;7.40;82.90;;;;;;4909661;29;20040;-60
2021/03/23 02:25:15;;;;;;;8.10;2.53;;;7.40;82.90;;;;;;4907068;29;20036;-60
2021/03/23 02:27:42;;;;;;;4.18;2.03;;;7.40;82.90;;;;;;4909689;29;20130;-60
2021/03/23 02:30:16;;;;;;;8.82;2.58;;;7.40;82.90;;;;;;4909020;29;20036;-61
2021/03/23 02:32:42;;;;;;;5.78;2.40;;;7.40;82.90;;;;;;4889766;29;20045;-64
2021/03/23 02:35:08;;;;;;;7.70;2.40;;;7.30;82.60;;;;;;4909443;29;20874;-64
2021/03/23 02:37:34;;;;;;;7.90;2.30;;;7.40;83.10;;;;;;4909036;29;20047;-60
2021/03/23 02:39:59;;;;;;;4.85;2.08;;;7.30;83.10;;;;;;4909879;29;20036;-60
2021/03/23 02:42:25;;;;;;;6.60;2.13;;;7.30;83.50;;;;;;4910339;29;20035;-60
2021/03/23 02:44:51;;;;;;;5.18;2.78;;;7.30;83.00;;;;;;4910180;29;20067;-65
2021/03/23 02:47:18;;;;;;;5.07;2.70;;;7.20;84.20;;;;;;4911891;29;20043;-64
2021/03/23 02:49:44;;;;;;;4.95;2.95;;;7.20;84.40;;;;;;4910615;29;20126;-64
2021/03/23 02:52:12;;;;;;;8.02;2.70;;;7.10;84.30;;;;;;4911008;29;20162;-64
2021/03/23 02:54:38;;;;;;;7.78;2.80;;;7.20;84.50;;;;;;4908489;29;20035;-65
2021/03/23 02:57:05;;;;;;;6.47;2.58;;;7.20;84.60;;;;;;4907020;29;20050;-64
2021/03/23 02:59:31;;;;;;;8.35;2.65;;;7.20;84.80;;;;;;4893766;29;20146;-64
2021/03/23 03:01:56;;;;;;;5.60;3.15;;;7.20;84.40;;;;;;4908284;29;20489;-64
2021/03/23 03:04:22;;;;;;;5.90;2.60;;;7.30;84.50;;;;;;4907111;29;20040;-64
2021/03/23 03:06:48;;;;;;;6.25;2.35;;;7.30;84.30;;;;;;4909402;29;20040;-64
2021/03/23 03:09:13;;;;;;;9.27;3.05;;;7.30;84.30;;;;;;4892298;29;20103;-64
2021/03/23 03:11:39;;;;;;;5.93;2.70;;;7.30;84.50;;;;;;4908414;29;20035;-64
2021/03/23 03:14:05;;;;;;;7.05;2.90;;;7.40;84.30;;;;;;4906041;29;20657;-64
2021/03/23 03:16:32;;;;;;;6.57;2.92;;;7.30;84.30;;;;;;4910913;29;20043;-64
2021/03/23 03:18:57;;;;;;;4.57;2.58;;;7.40;84.60;;;;;;4908793;29;20039;-64
2021/03/23 03:21:23;;;;;;;4.88;2.13;;;7.30;84.30;;;;;;4909378;29;20099;-60
2021/03/23 03:23:49;;;;;;;4.68;2.50;;;7.30;84.40;;;;;;4910103;29;20115;-64
2021/03/23 03:26:15;;;;;;;5.10;2.17;;;7.30;84.30;;;;;;4908070;29;20146;-64
2021/03/23 03:28:49;;;;;;;3.40;1.98;;;7.20;84.40;;;;;;4909199;29;20626;-64
2021/03/23 03:31:17;;;;;;;4.65;2.00;;;7.20;84.40;;;;;;4897454;29;20036;-64
2021/03/23 03:33:43;;;;;;;6.00;2.20;;;7.20;84.40;;;;;;4907978;29;20578;-65
2021/03/23 03:36:08;;;;;;;6.07;2.17;;;7.30;84.30;;;;;;4906323;29;20254;-65
2021/03/23 03:38:34;;;;;;;3.65;2.00;;;7.30;84.50;;;;;;4902549;29;20477;-64
2021/03/23 03:41:00;;;;;;;3.35;2.05;;;7.20;84.60;;;;;;4909164;29;20039;-64
2021/03/23 03:43:28;;;;;;;5.75;2.65;;;7.30;84.30;;;;;;4911096;29;20083;-64
2021/03/23 03:45:55;;;;;;;4.68;2.38;;;7.20;84.30;;;;;;4906762;29;20055;-64
2021/03/23 03:48:20;;;;;;;6.00;2.60;;;7.30;84.50;;;;;;4910481;29;20032;-60
2021/03/23 03:50:46;;;;;;;3.97;2.50;;;7.20;84.60;;;;;;4907328;29;20042;-60
2021/03/23 03:53:12;;;;;;;5.97;2.65;;;7.20;84.60;;;;;;4909823;29;20078;-60
2021/03/23 03:55:41;;;;;;;5.05;2.42;;;7.20;84.80;;;;;;4910557;29;20347;-60
2021/03/23 03:58:07;;;;;;;4.85;2.85;;;7.20;84.90;;;;;;4907262;29;20034;-60
2021/03/23 04:00:34;;;;;;;6.22;2.90;;;7.20;84.80;;;;;;4891518;29;20503;-60
2021/03/23 04:03:01;;;;;;;4.20;2.78;;;7.30;84.60;;;;;;4908112;29;20036;-60
2021/03/23 04:05:35;;;;;;;6.43;3.30;;;7.30;85.40;;;;;;4907495;29;20028;-60
2021/03/23 04:08:03;;;;;;;5.32;2.50;;;7.30;84.60;;;;;;4906599;29;20400;-60
2021/03/23 04:10:29;;;;;;;11.40;3.50;;;7.30;84.90;;;;;;4914049;29;20048;-60
2021/03/23 04:12:55;;;;;;;6.15;2.75;;;7.20;84.90;;;;;;4913712;29;20108;-64
2021/03/23 04:15:39;;;;;;;5.45;2.50;;;7.30;84.90;;;;;;4911141;29;20114;-64
2021/03/23 04:18:07;;;;;;;4.88;2.58;;;7.20;85.10;;;;;;4930453;28;20079;-64
2021/03/23 04:20:33;;;;;;;4.75;2.65;;;7.20;85.30;;;;;;4911264;29;20042;-64
2021/03/23 04:22:59;;;;;;;5.05;2.75;;;7.20;85.20;;;;;;4895444;29;20064;-65
2021/03/23 04:25:29;;;;;;;6.40;2.95;;;7.20;85.30;;;;;;4917704;29;20039;-65
2021/03/23 04:27:56;;;;;;;5.28;2.85;;;7.20;85.30;;;;;;4897494;29;20045;-60
2021/03/23 04:30:23;;;;;;;7.07;3.30;;;7.20;85.40;;;;;;4919774;29;20036;-64
2021/03/23 04:32:50;;;;;;;7.63;3.17;;;7.20;85.20;;;;;;4917985;29;20035;-60
2021/03/23 04:35:31;;;;;;;5.70;2.92;;;7.20;85.00;;;;;;4918872;29;20035;-59
2021/03/23 04:37:56;;;;;;;10.82;3.35;;;7.20;84.80;;;;;;4919758;29;20067;-60
2021/03/23 04:40:22;;;;;;;7.68;2.97;;;7.10;85.10;;;;;;4912668;29;20132;-59
2021/03/23 04:42:48;;;;;;;7.55;3.75;;;7.10;85.00;;;;;;4915371;29;20040;-60
2021/03/23 04:45:14;;;;;;;6.32;3.35;;;7.10;85.10;;;;;;4932464;28;20051;-64
2021/03/23 04:47:40;;;;;;;5.55;2.85;;;7.10;85.30;;;;;;4917886;29;20055;-64
2021/03/23 04:50:06;;;;;;;6.13;3.40;;;7.20;85.20;;;;;;4915754;29;20774;-64
2021/03/23 04:52:32;;;;;;;5.85;3.67;;;7.20;85.10;;;;;;4913100;29;20036;-64
2021/03/23 04:54:58;;;;;;;10.52;3.75;;;7.20;85.00;;;;;;4918284;29;20840;-64
2021/03/23 04:57:24;;;;;;;7.90;3.40;;;7.20;85.00;;;;;;4913483;29;20047;-64
2021/03/23 04:59:49;;;;;;;5.78;3.13;;;7.20;85.00;;;;;;4916988;29;20032;-64
2021/03/23 05:02:15;;;;;;;6.05;3.08;;;7.10;85.20;;;;;;4919918;29;20564;-64
2021/03/23 05:04:41;;;;;;;3.38;2.70;;;7.10;85.00;;;;;;4910837;29;20066;-64
2021/03/23 05:07:06;;;;;;;5.80;2.90;;;7.10;85.20;;;;;;4916476;29;20126;-64
2021/03/23 05:09:32;;;;;;;11.13;3.50;;;7.10;85.30;;;;;;4916469;29;20035;-65
2021/03/23 05:11:57;;;;;;;7.50;2.67;;;7.10;85.30;;;;;;4916505;29;20064;-64
2021/03/23 05:14:23;;;;;;;5.38;2.63;;;7.20;85.20;;;;;;4916455;29;20043;-64
2021/03/23 05:16:49;;;;;;;4.82;2.92;;;7.10;84.70;;;;;;4919586;29;20063;-64
2021/03/23 05:19:14;;;;;;;4.35;2.72;;;7.20;84.90;;;;;;4919817;29;20127;-60
2021/03/23 05:21:40;;;;;;;5.28;2.97;;;7.30;84.40;;;;;;4918312;29;20028;-60
2021/03/23 05:24:07;;;;;;;4.82;2.55;;;7.20;84.50;;;;;;4912101;29;20036;-60
2021/03/23 05:26:33;;;;;;;3.58;2.40;;;7.20;84.20;;;;;;4910882;29;20072;-60
2021/03/23 05:28:59;;;;;;;3.95;2.53;;;7.20;84.40;;;;;;4919709;29;20172;-64
2021/03/23 05:31:24;;;;;;;4.55;2.47;;;7.20;84.70;;;;;;4915788;29;20051;-64
2021/03/23 05:33:52;;;;;;;4.07;2.35;;;7.20;84.50;;;;;;4930467;29;20055;-60
2021/03/23 05:36:18;;;;;;;5.22;2.40;;;7.20;83.60;;;;;;4910627;29;20040;-64
2021/03/23 05:38:44;;;;;;;4.75;2.15;;;7.20;83.80;;;;;;4912382;29;20548;-64
2021/03/23 05:41:17;;;;;;;3.28;1.90;;;7.10;83.40;;;;;;4906458;29;20067;-64
2021/03/23 05:44:10;;;;;;;3.17;2.03;;;7.20;84.10;;;;;;4910047;29;20131;-60
2021/03/23 05:46:38;;;;;;;3.30;2.08;;;7.20;83.70;;;;;;4914258;29;20051;-60
2021/03/23 05:49:10;;;;;;;4.55;1.90;;;7.20;83.70;;;;;;4913021;29;20046;-60
2021/03/23 05:51:51;;;;;;;4.68;1.90;;;7.20;83.60;;;;;;4913669;29;20058;-60
2021/03/23 05:54:21;;;;;;;5.78;2.08;;;7.20;83.60;;;;;;4909363;29;20036;-60
2021/03/23 05:56:54;;;;;;;1.95;1.75;;;7.20;83.80;;;;;;4914883;29;20040;-64
2021/03/23 05:59:39;;;;;;;3.60;1.98;;;7.20;83.00;;;;;;4928098;29;20408;-64
2021/03/23 06:02:15;;;;;;;3.85;2.00;;;7.20;83.50;;;;;;4908065;29;20480;-65
2021/03/23 06:04:56;;;;;;;;;;;7.30;83.70;;;;;;4912113;29;20031;-65
2021/03/23 06:07:22;;;;;;;2.33;1.73;;;7.30;83.50;;;;;;4926564;29;19915;-64
2021/03/23 06:09:48;;;;;;;3.85;2.08;;;7.20;83.80;;;;;;4914460;29;20036;-65
2021/03/23 06:12:24;;;;;;;4.53;2.13;;;7.30;83.80;;;;;;4914036;29;20109;-64
2021/03/23 06:15:08;;;;;;;4.65;2.83;;;7.30;83.70;;;;;;4916802;29;20114;-65
2021/03/23 06:17:57;;;;;;;3.70;2.15;;;7.30;83.80;;;;;;4920305;29;20143;-60
2021/03/23 06:20:42;;;;;;;4.28;2.30;;;7.30;83.90;;;;;;4915481;29;20054;-60
2021/03/23 06:23:29;;;;;;;3.67;2.33;;;7.40;83.60;;;;;;4918481;29;20027;-65
2021/03/23 06:26:17;;;;;;;3.75;1.83;;;7.40;83.50;;;;;;4906740;29;20038;-64
2021/03/23 06:29:26;;;;;;;4.70;2.05;;;7.40;83.60;;;;;;4913050;29;20138;-64
2021/03/23 06:31:52;;;;;;;5.22;2.58;;;7.50;83.10;;;;;;4907426;29;20683;-60
2021/03/23 06:34:24;;;;;;;4.53;2.80;;;7.50;83.00;;;;;;4919037;29;20046;-61
2021/03/23 06:36:50;;;;;;;4.35;2.20;;;7.50;82.70;;;;;;4909477;29;20496;-65
2021/03/23 06:39:16;;;;;;;2.88;2.40;;;7.50;82.90;;;;;;4930809;29;20042;-61
2021/03/23 06:41:58;;;;;;;4.30;2.67;;;7.60;82.70;;;;;;4905696;29;20028;-64
2021/03/23 06:44:29;;;;;;;5.75;2.80;;;7.60;83.00;;;;;;4915291;29;20039;-65
2021/03/23 06:46:57;;;;;;;5.53;2.90;;;7.70;82.90;;;;;;4924750;29;20055;-59
2021/03/23 06:49:30;;;;;;;4.07;2.70;;;7.70;82.90;;;;;;4914740;29;20075;-64
2021/03/23 06:52:01;;;;;;;4.90;2.70;;;7.80;82.60;;;;;;4914851;29;20039;-63
2021/03/23 06:54:33;;;;;;;5.10;2.72;;;7.90;82.00;;;;;;4912715;29;20491;-65
2021/03/23 06:57:04;;;;;;;3.78;2.80;;;7.90;81.30;;;;;;4917626;29;20093;-64
2021/03/23 07:00:25;;;;;;;5.75;3.05;;;7.80;81.00;;;;;;4912742;29;20580;-64
2021/03/23 07:02:54;;;;;;;3.53;2.33;;;7.80;81.00;;;;;;4844486;29;20060;-65
2021/03/23 07:05:26;;;;;;;4.85;2.65;;;7.80;80.40;;;;;;4901039;29;20058;-66
2021/03/23 07:08:20;;;;;;;4.53;2.63;;;7.80;80.80;;;;;;4912906;29;20103;-64
2021/03/23 07:10:51;;;;;;;4.78;3.17;;;7.90;81.30;;;;;;4909196;29;20044;-64
2021/03/23 07:13:26;;;;;;;6.50;3.38;;;8.00;81.40;;;;;;4913195;29;20663;-65
2021/03/23 07:16:09;;;;;;;3.53;2.70;;;8.10;80.70;;;;;;4895305;29;20039;-60
2021/03/23 07:18:41;;;;;;;6.82;2.72;;;8.10;79.80;;;;;;4913711;29;20028;-60
2021/03/23 07:21:12;;;;;;;4.90;2.67;;;8.10;79.40;;;;;;4912804;29;20548;-60
2021/03/23 07:23:43;;;;;;;4.75;2.70;;;8.20;79.50;;;;;;4912768;29;20032;-60
2021/03/23 07:26:26;;;;;;;5.70;2.63;;;8.20;79.80;;;;;;4917644;29;20130;-60
2021/03/23 07:28:52;;;;;;;4.38;2.88;;;8.30;79.40;;;;;;4911510;29;20054;-60
2021/03/23 07:31:34;;;;;;;4.35;2.88;;;8.40;78.80;;;;;;4914839;29;20039;-61
2021/03/23 07:34:37;;;;;;;5.18;2.70;;;8.40;78.00;;;;;;4909699;29;20043;-60
2021/03/23 07:37:15;;;;;;;3.90;2.58;;;8.40;78.40;;;;;;4910468;29;20095;-60
2021/03/23 07:39:58;;;;;;;3.95;3.15;;;8.50;78.50;;;;;;4908387;29;20068;-60
2021/03/23 07:42:36;;;;;;;4.75;2.78;;;8.60;77.90;;;;;;4909786;29;20048;-60
2021/03/23 07:45:20;;;;;;;3.22;2.47;;;8.70;77.10;;;;;;4914554;29;20054;-60
2021/03/23 07:47:53;;;;;;;3.83;2.63;;;8.80;76.90;;;;;;4910616;29;20044;-60
2021/03/23 07:50:35;;;;;;;3.03;2.33;;;8.90;77.40;;;;;;4908657;29;20103;-60
2021/03/23 07:53:06;;;;;;;5.40;2.58;;;8.90;77.20;;;;;;4907527;29;20051;-60
2021/03/23 07:55:34;;;;;;;6.28;3.35;;;8.90;76.60;;;;;;4919091;29;20063;-61
2021/03/23 07:57:59;;;;;;;3.60;2.47;;;9.00;76.80;;;;;;4920594;29;20046;-64
2021/03/23 08:00:43;;;;;;;4.72;2.35;;;9.00;76.00;;;;;;4905270;29;20039;-65
2021/03/23 08:03:39;;;;;;;4.57;2.70;;;9.10;76.10;;;;;;4916178;29;20480;-64
2021/03/23 08:06:29;;;;;;;5.25;2.67;;;9.10;75.40;;;;;;4900103;29;20040;-64
2021/03/23 08:09:18;;;;;;;5.60;2.28;;;9.10;74.80;;;;;;4910756;29;20028;-64
2021/03/23 08:12:21;;;;;;;4.72;1.92;;;9.10;74.70;;;;;;4912933;29;20044;-65
2021/03/23 08:15:22;;;;;;;2.75;1.67;;;9.10;74.90;;;;;;4915022;29;20047;-64
2021/03/23 08:18:06;;;;;;;4.43;2.08;;;9.10;74.80;;;;;;4912332;29;20048;-65
2021/03/23 08:20:52;;;;;;;3.45;1.80;;;9.00;73.70;;;;;;4913930;29;20039;-65
2021/03/23 08:23:39;;;;;;;2.38;1.90;;;9.10;74.70;;;;;;4917299;29;20139;-61
2021/03/23 08:26:33;;;;;;;2.83;2.17;;;9.10;74.30;;;;;;4914867;29;20400;-64
2021/03/23 08:29:13;;;;;;;4.70;1.90;;;9.10;73.60;;;;;;4909711;29;20032;-65
2021/03/23 08:32:17;;;;;;;2.85;2.13;;;9.10;74.80;;;;;;4915336;29;20043;-61
2021/03/23 08:35:04;;;;;;;3.00;1.90;;;9.20;74.80;;;;;;4909938;29;20050;-64
2021/03/23 08:37:45;;;;;;;4.28;1.50;;;9.20;74.90;;;;;;4919340;29;20514;-60
2021/03/23 08:40:37;;;;;;;2.08;1.67;;;9.30;74.00;;;;;;4915075;29;20115;-61
2021/03/23 08:43:03;;;;;;;4.60;2.75;;;9.50;73.00;;;;;;4915511;29;20035;-60
2021/03/23 08:45:50;;;;;;;3.58;2.00;;;9.50;72.90;;;;;;4917756;29;20039;-61
2021/03/23 08:48:47;;;;;;;2.80;1.73;;;9.60;71.80;;;;;;4911078;29;20059;-61
2021/03/23 08:51:18;;;;;;;2.30;1.80;;;9.70;72.20;;;;;;4906701;29;20066;-61
2021/03/23 08:53:49;;;;;;;3.20;2.28;;;9.70;71.50;;;;;;4917660;29;20032;-60
2021/03/23 08:56:15;;;;;;;5.43;1.83;;;9.70;71.20;;;;;;4914155;29;20137;-60
2021/03/23 08:58:51;;;;;;;3.33;2.25;;;9.80;70.60;;;;;;4920701;29;20034;-68
2021/03/23 09:01:29;;;;;;;2.30;1.77;;;9.90;71.30;;;;;;4933543;29;20031;-64
2021/03/23 09:04:26;;;;;;;3.15;2.17;;;9.90;71.30;;;;;;4917649;29;20044;-65
2021/03/23 09:07:23;;;;;;;4.03;2.10;;;10.10;71.40;;;;;;4887487;29;20059;-65
2021/03/23 09:09:51;;;;;;;6.03;2.30;;;10.20;70.90;;;;;;4897292;29;20052;-65
2021/03/23 09:12:42;;;;;;;4.25;2.15;;;10.40;69.20;;;;;;4917654;29;20838;-65
2021/03/23 09:15:13;;;;;;;3.35;1.98;;;10.40;67.60;;;;;;4904990;29;20043;-66
2021/03/23 09:17:52;;;;;;;2.38;1.75;;;10.30;67.70;;;;;;4935308;29;20040;-64
2021/03/23 09:20:34;;;;;;;2.45;2.00;;;10.40;69.10;;;;;;4914875;29;20047;-65
2021/03/23 09:23:18;;;;;;;5.55;2.10;;;10.30;67.10;;;;;;4915019;29;20051;-65
2021/03/23 09:26:00;;;;;;;2.55;1.90;;;10.30;68.40;;;;;;4910904;29;20580;-64
2021/03/23 09:28:29;;;;;;;2.92;2.03;;;10.40;68.00;;;;;;4912161;29;20484;-64
2021/03/23 09:31:11;;;;;;;4.00;1.70;;;10.40;69.60;;;;;;4915735;29;20477;-64
2021/03/23 09:33:48;;;;;;;3.95;2.08;;;10.50;68.20;;;;;;4914961;29;20024;-65
2021/03/23 09:36:17;;;;;;;3.60;2.15;;;10.60;68.20;;;;;;4910450;29;20118;-64
2021/03/23 09:38:46;;;;;;;5.30;2.72;;;10.60;66.80;;;;;;4916565;29;20114;-64
2021/03/23 09:41:20;;;;;;;3.10;2.38;;;10.60;67.10;;;;;;4916790;29;20046;-70
2021/03/23 09:44:13;;;;;;;4.30;2.20;;;10.70;67.10;;;;;;4917211;29;20039;-60
2021/03/23 09:46:54;;;;;;;2.92;2.00;;;10.60;67.20;;;;;;4899535;29;20131;-64
2021/03/23 09:49:25;;;;;;;2.70;1.67;;;10.60;68.00;;;;;;4914337;29;20035;-64
2021/03/23 09:52:06;;;;;;;2.55;1.58;;;10.60;66.70;;;;;;4914813;29;20519;-64
2021/03/23 09:54:32;;;;;;;1.92;1.73;;;10.60;67.60;;;;;;4913163;29;20039;-60
2021/03/23 09:57:04;;;;;;;3.85;2.00;;;10.50;67.10;;;;;;4914680;29;20067;-63
2021/03/23 09:59:33;;;;;;;3.47;1.55;;;10.60;66.70;;;;;;4913368;29;20123;-64
2021/03/23 10:02:19;;;;;;;3.83;1.80;;;10.50;65.60;;;;;;4917628;29;20488;-61
2021/03/23 10:04:46;;;;;;;2.63;1.65;;;10.60;65.20;;;;;;4914218;29;20711;-61
2021/03/23 10:07:25;;;;;;;3.83;1.80;;;10.70;66.30;;;;;;4915868;29;20050;-61
2021/03/23 10:09:50;;;;;;;4.35;1.83;;;10.80;66.10;;;;;;4912961;29;20039;-60
2021/03/23 10:12:31;;;;;;;2.28;1.50;;;11.00;65.00;;;;;;4920064;29;20043;-59
2021/03/23 10:14:57;;;;;;;2.08;1.55;;;11.10;64.40;;;;;;4907869;29;20128;-60
2021/03/23 10:17:27;;;;;;;2.55;1.50;;;11.40;64.00;;;;;;4912933;29;20693;-60
2021/03/23 10:19:56;;;;;;;2.67;1.83;;;11.70;62.80;;;;;;4914246;29;20109;-65
2021/03/23 10:22:28;;;;;;;5.95;1.90;;;11.80;61.70;;;;;;4920264;29;20500;-65
2021/03/23 10:24:56;;;;;;;2.20;1.67;;;12.20;61.90;;;;;;4909188;29;20793;-65
2021/03/23 10:27:41;;;;;;;1.60;1.08;;;12.60;60.00;;;;;;4916691;29;20142;-66
2021/03/23 10:30:10;;;;;;;1.38;0.90;;;13.10;58.40;;;;;;4918310;29;20090;-61
2021/03/23 10:32:44;;;;;;;3.22;1.40;;;13.30;57.20;;;;;;4914865;29;20040;-61
2021/03/23 10:35:16;;;;;;;1.67;1.00;;;13.20;56.70;;;;;;4917980;29;20106;-60
2021/03/23 10:37:42;;;;;;;0.80;0.80;;;13.10;56.70;;;;;;4932225;29;20067;-65
2021/03/23 10:40:36;;;;;;;1.52;0.75;;;12.90;56.60;;;;;;4915219;29;20043;-64
2021/03/23 10:43:02;;;;;;;1.65;0.70;;;12.70;57.70;;;;;;4914594;29;20480;-60
2021/03/23 10:45:44;;;;;;;0.82;0.73;;;12.50;57.20;;;;;;4918996;29;20090;-60
2021/03/23 10:48:12;;;;;;;1.60;0.90;;;12.20;58.00;;;;;;4914093;29;20040;-61
2021/03/23 10:50:39;;;;;;;2.92;1.10;;;11.90;58.40;;;;;;4917811;29;20047;-61
2021/03/23 10:53:11;;;;;;;4.32;2.63;;;11.70;59.60;;;;;;4916465;29;20028;-61
2021/03/23 10:55:47;;;;;;;2.42;1.30;;;11.60;60.10;;;;;;4910641;29;20043;-61
2021/03/23 10:58:17;;;;;;;1.00;0.88;;;11.50;60.70;;;;;;4914024;29;20043;-60
2021/03/23 11:00:45;;;;;;;0.80;0.70;;;11.40;61.00;;;;;;4910628;29;20036;-60
2021/03/23 11:03:32;;;;;;;2.78;1.10;;;11.30;61.00;;;;;;4915372;29;20024;-61
2021/03/23 11:05:59;;;;;;;3.90;1.85;;;11.40;61.80;;;;;;4928393;29;20035;-60
2021/03/23 11:08:26;;;;;;;1.88;1.20;;;11.50;61.90;;;;;;4913612;29;20031;-60
2021/03/23 11:10:55;;;;;;;2.03;1.40;;;11.70;62.70;;;;;;4916164;29;20079;-60
2021/03/23 11:13:21;;;;;;;2.22;1.30;;;11.80;61.80;;;;;;4898819;29;20031;-64
2021/03/23 11:15:49;;;;;;;4.25;1.40;;;12.00;61.20;;;;;;4917714;29;20028;-66
2021/03/23 11:18:21;;;;;;;4.28;1.52;;;12.00;60.70;;;;;;4912351;29;20044;-64
2021/03/23 11:20:47;;;;;;;5.18;1.50;;;11.70;61.00;;;;;;4915432;29;20115;-65
2021/03/23 11:23:29;;;;;;;8.82;1.70;;;11.60;62.60;;;;;;4913497;29;20110;-67
2021/03/23 11:25:55;;;;;;;4.03;2.20;;;11.30;62.40;;;;;;4910764;29;20420;-66
2021/03/23 11:28:20;;;;;;;5.65;1.70;;;11.10;63.30;;;;;;4915226;29;20036;-65
2021/03/23 11:30:47;;;;;;;3.50;2.15;;;11.00;64.00;;;;;;4921510;29;20059;-66
2021/03/23 11:33:14;;;;;;;8.15;2.25;;;10.90;63.90;;;;;;4912191;29;20032;-61
2021/03/23 11:35:44;;;;;;;3.97;2.20;;;10.90;65.00;;;;;;4920814;29;20038;-60
2021/03/23 11:38:10;;;;;;;3.17;1.73;;;11.00;65.20;;;;;;4918510;29;20046;-60
2021/03/23 11:40:35;;;;;;;2.83;1.77;;;11.00;64.80;;;;;;4918256;29;20036;-60
2021/03/23 11:43:01;;;;;;;5.47;1.92;;;11.00;64.60;;;;;;4922855;29;20043;-60
2021/03/23 11:45:35;;;;;;;3.17;1.90;;;11.10;64.80;;;;;;4920699;29;20044;-60
2021/03/23 11:48:08;;;;;;;10.20;4.65;;;11.10;65.80;;;;;;4900050;29;20039;-61
2021/03/23 11:50:35;;;;;;;3.92;2.45;;;11.20;66.40;;;;;;4918101;29;20086;-60
2021/03/23 11:53:02;;;;;;;3.83;2.50;;;11.20;66.10;;;;;;4915478;29;20047;-61
2021/03/23 11:55:35;;;;;;;5.78;2.80;;;11.20;65.80;;;;;;4919690;29;20420;-65
2021/03/23 11:58:02;;;;;;;4.43;2.08;;;11.30;66.90;;;;;;4922176;29;20079;-66
2021/03/23 12:00:30;;;;;;;4.93;1.90;;;11.40;65.60;;;;;;4919439;29;20063;-64
2021/03/23 12:02:56;;;;;;;5.10;2.28;;;11.40;65.30;;;;;;4920698;29;20488;-64
2021/03/23 12:05:23;;;;;;;6.65;1.92;;;11.30;65.20;;;;;;4913311;29;20115;-65
2021/03/23 12:07:54;;;;;;;3.10;2.08;;;11.30;64.90;;;;;;4917841;29;20055;-65
2021/03/23 12:10:27;;;;;;;7.07;2.47;;;11.20;65.30;;;;;;4915941;29;20036;-65
2021/03/23 12:13:12;;;;;;;4.90;2.08;;;11.30;64.70;;;;;;4917022;29;20051;-65
2021/03/23 12:15:42;;;;;;;6.78;2.13;;;11.30;65.40;;;;;;4916187;29;20044;-64
2021/03/23 12:18:15;;;;;;;3.38;2.00;;;11.40;63.90;;;;;;4917551;29;20055;-65
2021/03/23 12:20:43;;;;;;;6.97;2.70;;;11.50;62.40;;;;;;4901720;29;20115;-65
2021/03/23 12:23:09;;;;;;;5.53;3.00;;;11.60;63.70;;;;;;4934659;29;20668;-64
2021/03/23 12:25:36;;;;;;;3.80;1.95;;;11.60;63.80;;;;;;4919138;29;20035;-68
2021/03/23 12:28:02;;;;;;;3.97;2.40;;;11.60;64.00;;;;;;4918772;29;20265;-64
2021/03/23 12:30:27;;;;;;;5.05;2.80;;;11.60;63.00;;;;;;4919632;29;20634;-64
2021/03/23 12:32:55;;;;;;;8.23;2.20;;;11.70;63.00;;;;;;4917872;29;20044;-65
2021/03/23 12:35:26;;;;;;;3.67;2.10;;;11.70;62.00;;;;;;4917936;29;20094;-64
2021/03/23 12:37:56;;;;;;;6.63;2.45;;;11.80;62.80;;;;;;4918001;29;20114;-65
2021/03/23 12:40:24;;;;;;;5.57;2.00;;;11.90;62.90;;;;;;4918332;29;20035;-66
2021/03/23 12:42:51;;;;;;;3.95;2.33;;;12.00;62.70;;;;;;4917769;29;20039;-66
2021/03/23 12:45:27;;;;;;;4.38;1.98;;;12.00;61.20;;;;;;4917579;29;20074;-66
2021/03/23 12:47:53;;;;;;;;;;;11.90;62.10;;;;;;4919651;29;20040;-67
2021/03/23 12:50:19;;;;;;;8.57;2.27;;;11.80;61.70;;;;;;4916157;29;19925;-66
2021/03/23 12:52:46;;;;;;;4.90;2.58;;;11.70;62.40;;;;;;4921437;29;20818;-65
2021/03/23 12:55:29;;;;;;;4.57;2.42;;;11.50;62.60;;;;;;4919591;29;20851;-65
2021/03/23 12:57:57;;;;;;;5.88;2.70;;;11.40;63.20;;;;;;4918783;29;20059;-64
2021/03/23 13:00:23;;;;;;;4.97;1.90;;;11.30;63.70;;;;;;4918402;29;20024;-65
2021/03/23 13:02:49;;;;;;;4.57;2.40;;;11.20;63.40;;;;;;4918319;29;20562;-64
2021/03/23 13:05:15;;;;;;;10.27;2.78;;;11.20;64.00;;;;;;4918740;29;20039;-65
2021/03/23 13:07:41;;;;;;;6.28;2.28;;;11.20;64.70;;;;;;4914846;29;20928;-60
2021/03/23 13:10:18;;;;;;;6.05;2.60;;;11.10;65.00;;;;;;4915458;29;20032;-60
2021/03/23 13:12:43;;;;;;;5.43;2.95;;;11.00;65.30;;;;;;4912891;29;20103;-59
2021/03/23 13:15:11;;;;;;;6.15;3.17;;;10.90;65.20;;;;;;4919504;29;20032;-64